.
WxDataArchive / Data Records for 2011-11-15
2011-11-14 November 2011 2011-11-16

Data Records for Tuesday, 15 November 2011

Time	Temp	Chill	HIndex	Humid	Dewpt	 Wind 	HiWind	WindDir	Rain 	Barom 
-----	----	-----	------	-----	-----	------	------	-------	-----	----- 
00:00	44.5	44.5	44.5	96	43.4	0	0	---	0.00	29.741 
00:05	44.5	44.5	44.5	96	43.4	0	0	---	0.00	29.741 
00:10	44.6	44.6	44.6	96	43.5	0	0	---	0.00	29.741 
00:15	44.6	44.6	44.6	96	43.5	0	0	---	0.00	29.750 
00:20	44.6	44.6	44.6	96	43.5	0	0	---	0.00	29.750 
00:25	44.9	44.9	44.9	96	43.8	0	0	---	0.00	29.750 
00:30	45.2	45.2	45.2	96	44.1	0	1	270	0.00	29.758 
00:35	45.4	45.4	45.4	96	44.3	0	1	270	0.00	29.758 
00:40	45.4	45.4	45.4	96	44.3	0	0	---	0.00	29.758 
00:45	45.5	45.5	45.5	96	44.4	0	0	---	0.00	29.751 
00:50	45.4	45.4	45.4	96	44.3	0	0	---	0.00	29.751 
00:55	45.2	45.2	45.2	96	44.1	0	0	---	0.00	29.751 
01:00	45.1	45.1	45.1	96	44.0	0	0	---	0.00	29.748 
01:05	44.9	44.9	44.9	96	43.8	0	0	---	0.00	29.748 
01:10	44.8	44.8	44.8	96	43.7	0	0	---	0.00	29.748 
01:15	44.8	44.8	44.8	96	43.7	0	0	---	0.00	29.742 
01:20	44.6	44.6	44.6	96	43.5	0	0	---	0.00	29.742 
01:25	44.6	44.6	44.6	96	43.5	0	0	---	0.00	29.742 
01:30	44.6	44.6	44.6	96	43.5	0	0	---	0.00	29.732 
01:35	44.6	44.6	44.6	96	43.5	0	0	---	0.00	29.732 
01:40	44.6	44.6	44.6	96	43.5	0	0	---	0.00	29.732 
01:45	44.6	44.6	44.6	96	43.5	0	0	---	0.00	29.742 
01:50	44.6	44.6	44.6	96	43.5	0	0	---	0.00	29.742 
01:55	44.8	44.8	44.8	96	43.7	0	0	---	0.00	29.742 
02:00	44.8	44.8	44.8	96	43.7	0	0	---	0.00	29.749 
02:05	44.9	44.9	44.9	96	43.8	0	0	---	0.00	29.749 
02:10	45.2	45.2	45.2	96	44.1	0	0	---	0.00	29.749 
02:15	45.5	45.5	45.5	97	44.7	0	0	---	0.00	29.759 
02:20	45.8	45.8	45.8	97	45.0	0	0	---	0.00	29.759 
02:25	46.1	46.1	46.1	97	45.3	0	1	270	0.00	29.759 
02:30	46.4	46.4	46.4	97	45.6	0	1	270	0.00	29.760 
02:35	46.5	46.5	46.5	97	45.7	0	1	270	0.00	29.760 
02:40	46.8	46.8	46.8	97	46.0	0	1	270	0.00	29.760 
02:45	46.8	46.8	46.8	97	46.0	0	0	---	0.00	29.756 
02:50	47.0	47.0	47.0	97	46.2	0	0	---	0.00	29.756 
02:55	47.0	47.0	47.0	97	46.2	0	0	---	0.00	29.756 
03:00	47.0	47.0	47.0	97	46.2	0	1	270	0.00	29.756 
03:05	47.1	47.1	47.1	97	46.3	0	0	---	0.00	29.756 
03:10	47.1	47.1	47.1	97	46.3	0	0	---	0.00	29.756 
03:15	47.1	47.1	47.1	97	46.3	0	1	270	0.00	29.768 
03:20	47.3	47.3	47.3	97	46.5	0	0	---	0.00	29.768 
03:25	47.3	47.3	47.3	97	46.5	0	0	---	0.00	29.768 
03:30	47.3	47.3	47.3	97	46.5	0	0	---	0.00	29.766 
03:35	47.4	47.4	47.4	97	46.6	0	1	270	0.00	29.766 
03:40	47.4	47.4	47.4	97	46.6	0	1	270	0.00	29.766 
03:45	47.6	47.6	47.6	97	46.8	0	0	---	0.00	29.764 
03:50	47.4	47.4	47.4	97	46.6	0	0	---	0.00	29.764 
03:55	47.4	47.4	47.4	97	46.6	0	0	---	0.00	29.764 
04:00	47.3	47.3	47.3	97	46.5	0	0	---	0.00	29.761 
04:05	47.1	47.1	47.1	97	46.3	0	0	---	0.00	29.761 
04:10	47.0	47.0	47.0	97	46.2	0	0	---	0.00	29.761 
04:15	46.8	46.8	46.8	97	46.0	0	0	---	0.00	29.763 
04:20	46.7	46.7	46.7	97	45.9	0	0	---	0.00	29.763 
04:25	46.5	46.5	46.5	97	45.7	0	0	---	0.00	29.763 
04:30	46.2	46.2	46.2	97	45.4	0	0	---	0.00	29.760 
04:35	46.2	46.2	46.2	97	45.4	0	0	---	0.00	29.760 
04:40	46.1	46.1	46.1	97	45.3	0	0	---	0.00	29.760 
04:45	46.1	46.1	46.1	97	45.3	0	0	---	0.00	29.766 
04:50	46.0	46.0	46.0	97	45.2	0	0	---	0.00	29.766 
04:55	45.8	45.8	45.8	97	45.0	0	0	---	0.00	29.766 
05:00	45.8	45.8	45.8	97	45.0	0	0	---	0.00	29.770 
05:05	45.7	45.7	45.7	97	44.9	0	0	---	0.00	29.770 
05:10	45.7	45.7	45.7	97	44.9	0	0	---	0.00	29.770 
05:15	45.8	45.8	45.8	97	45.0	0	0	---	0.00	29.778 
05:20	45.7	45.7	45.7	97	44.9	0	0	---	0.00	29.778 
05:25	45.5	45.5	45.5	97	44.7	0	0	---	0.00	29.778 
05:30	45.5	45.5	45.5	97	44.7	0	0	---	0.00	29.777 
05:35	45.5	45.5	45.5	97	44.7	0	0	---	0.00	29.777 
05:40	45.7	45.7	45.7	97	44.9	0	0	---	0.00	29.777 
05:45	45.7	45.7	45.7	97	44.9	0	0	---	0.00	29.787 
05:50	45.7	45.7	45.7	97	44.9	0	0	---	0.00	29.787 
05:55	45.5	45.5	45.5	97	44.7	0	0	---	0.00	29.787 
06:00	45.4	45.4	45.4	97	44.6	0	0	---	0.00	29.793 
06:05	45.2	45.2	45.2	97	44.4	0	0	---	0.00	29.793 
06:10	45.2	45.2	45.2	97	44.4	0	0	---	0.00	29.793 
06:15	45.1	45.1	45.1	97	44.3	0	0	---	0.00	29.795 
06:20	44.9	44.9	44.9	97	44.1	0	0	---	0.00	29.795 
06:25	44.8	44.8	44.8	97	44.0	0	0	---	0.00	29.795 
06:30	44.6	44.6	44.6	97	43.8	0	0	---	0.00	29.792 
06:35	44.6	44.6	44.6	97	43.8	0	0	---	0.00	29.792 
06:40	44.6	44.6	44.6	97	43.8	0	0	---	0.00	29.792 
06:45	44.6	44.6	44.6	97	43.8	0	0	---	0.00	29.794 
06:50	44.5	44.5	44.5	97	43.7	0	0	---	0.00	29.794 
06:55	44.5	44.5	44.5	97	43.7	0	0	---	0.00	29.794 
07:00	44.3	44.3	44.3	97	43.5	0	0	---	0.00	29.805 
07:05	44.3	44.3	44.3	97	43.5	0	0	---	0.00	29.805 
07:10	44.3	44.3	44.3	97	43.5	0	0	---	0.00	29.805 
07:15	44.2	44.2	44.2	97	43.4	0	0	---	0.00	29.810 
07:20	44.1	44.1	44.1	97	43.3	0	0	---	0.00	29.810 
07:25	44.1	44.1	44.1	97	43.3	0	0	---	0.00	29.810 
07:30	44.1	44.1	44.1	97	43.3	0	0	---	0.00	29.809 
07:35	43.9	43.9	43.9	97	43.1	0	0	---	0.00	29.809 
07:40	43.9	43.9	43.9	97	43.1	0	0	---	0.00	29.809 
07:45	43.8	43.8	43.8	97	43.0	0	0	---	0.00	29.823 
07:50	43.8	43.8	43.8	97	43.0	0	0	---	0.00	29.823 
07:55	43.6	43.6	43.6	97	42.8	0	0	---	0.00	29.823 
08:00	43.6	43.6	43.6	97	42.8	0	0	---	0.00	29.819 
08:05	43.8	43.8	43.8	97	43.0	0	0	---	0.00	29.819 
08:10	43.9	43.9	43.9	97	43.1	0	0	---	0.00	29.819 
08:15	44.1	44.1	44.1	97	43.3	0	0	---	0.00	29.829 
08:20	44.3	44.3	44.3	97	43.5	0	0	---	0.00	29.829 
08:25	44.6	44.6	44.6	97	43.8	0	0	---	0.00	29.829 
08:30	45.1	45.1	45.1	97	44.3	0	0	---	0.00	29.839 
08:35	45.4	45.4	45.4	97	44.6	0	1	225	0.00	29.839 
08:40	45.5	45.5	45.5	97	44.7	0	0	---	0.00	29.839 
08:45	45.8	45.8	45.8	97	45.0	0	0	---	0.00	29.838 
08:50	46.1	46.1	46.1	97	45.3	0	0	---	0.00	29.838 
08:55	46.2	46.2	46.2	97	45.4	0	0	---	0.00	29.838 
09:00	46.5	46.5	46.5	97	45.7	0	0	---	0.00	29.838 
09:05	46.8	46.8	46.8	97	46.0	0	0	---	0.00	29.838 
09:10	47.0	47.0	47.0	97	46.2	0	0	---	0.00	29.838 
09:15	47.3	47.3	47.3	97	46.5	0	0	---	0.00	29.840 
09:20	47.4	47.4	47.4	97	46.6	0	0	---	0.00	29.840 
09:25	47.6	47.6	47.6	97	46.8	0	0	---	0.00	29.840 
09:30	47.7	47.7	47.7	97	46.9	0	0	---	0.00	29.838 
09:35	48.0	48.0	48.0	97	47.2	0	0	---	0.00	29.838 
09:40	48.3	48.3	48.3	97	47.5	0	0	---	0.00	29.838 
09:45	48.5	48.5	48.5	97	47.7	0	0	---	0.00	29.839 
09:50	48.8	48.8	48.8	98	48.3	0	0	---	0.00	29.839 
09:55	48.9	48.9	48.9	98	48.4	0	0	---	0.00	29.839 
10:00	49.2	49.2	49.2	98	48.7	0	1	158	0.00	29.823 
10:05	49.4	49.4	49.4	98	48.9	0	0	---	0.00	29.823 
10:10	49.6	49.6	49.6	98	49.1	0	1	158	0.00	29.823 
10:15	49.8	49.8	49.8	98	49.3	0	1	158	0.00	29.823 
10:20	50.1	50.1	50.1	98	49.6	0	2	158	0.00	29.823 
10:25	50.2	50.2	50.2	98	49.7	0	3	158	0.00	29.823 
10:30	50.4	50.4	50.4	98	49.9	0	2	135	0.00	29.808 
10:35	50.5	50.5	50.5	98	50.0	0	1	135	0.00	29.808 
10:40	50.8	50.8	50.8	98	50.3	0	1	135	0.00	29.808 
10:45	51.3	51.3	51.3	98	50.8	0	1	135	0.00	29.821 
10:50	51.6	51.6	51.6	98	51.1	0	2	135	0.00	29.821 
10:55	51.7	51.7	51.7	98	51.2	1	4	68	0.00	29.821 
11:00	51.9	51.9	51.9	98	51.4	1	4	68	0.00	29.817 
11:05	52.0	52.0	52.0	98	51.5	1	6	248	0.00	29.817 
11:10	52.0	52.0	52.0	98	51.5	0	2	248	0.00	29.817 
11:15	52.2	52.2	52.2	97	51.4	1	6	248	0.00	29.819 
11:20	51.9	51.9	51.9	97	51.1	2	6	248	0.00	29.819 
11:25	51.7	51.7	51.7	97	50.9	2	4	270	0.00	29.819 
11:30	52.0	52.0	52.0	97	51.2	1	4	248	0.00	29.822 
11:35	52.2	52.2	52.2	97	51.4	2	4	225	0.00	29.822 
11:40	52.3	52.3	52.3	97	51.5	2	6	248	0.00	29.822 
11:45	52.5	52.5	52.5	97	51.7	2	5	248	0.00	29.817 
11:50	52.9	52.9	52.9	97	52.1	2	5	225	0.00	29.817 
11:55	53.3	53.3	53.3	96	52.2	2	6	248	0.00	29.817 
12:00	53.3	53.3	53.3	95	51.9	2	7	248	0.00	29.816 
12:05	53.5	53.5	53.5	94	51.8	2	5	248	0.00	29.816 
12:10	53.9	53.9	53.9	92	51.6	2	9	248	0.00	29.816 
12:15	54.2	54.2	54.2	90	51.3	1	5	248	0.00	29.809 
12:20	54.7	54.7	54.7	88	51.2	1	6	248	0.00	29.809 
12:25	55.4	55.4	55.4	86	51.3	1	3	90	0.00	29.809 
12:30	55.7	55.7	55.7	84	50.9	1	7	248	0.00	29.806 
12:35	56.0	56.0	56.0	82	50.6	3	7	248	0.00	29.806 
12:40	56.0	56.0	56.0	79	49.6	3	7	248	0.00	29.806 
12:45	56.2	56.2	56.2	79	49.8	2	5	270	0.00	29.804 
12:50	56.3	56.3	56.3	77	49.2	2	5	270	0.00	29.804 
12:55	56.3	56.3	56.3	77	49.2	2	7	248	0.00	29.804 
13:00	56.5	56.5	56.5	77	49.4	1	7	248	0.00	29.800 
13:05	56.7	56.7	56.7	77	49.6	1	5	248	0.00	29.800 
13:10	56.9	56.9	56.9	76	49.4	1	6	248	0.00	29.800 
13:15	57.0	57.0	57.0	76	49.5	1	5	248	0.00	29.799 
13:20	57.2	57.2	57.2	75	49.3	2	5	248	0.00	29.799 
13:25	57.2	57.2	57.2	75	49.3	1	6	248	0.00	29.799 
13:30	57.0	57.0	57.0	74	48.8	2	7	248	0.00	29.799 
13:35	56.9	56.9	56.9	74	48.7	2	5	248	0.00	29.799 
13:40	57.0	57.0	57.0	73	48.4	2	7	248	0.00	29.799 
13:45	57.0	57.0	57.0	73	48.4	3	10	248	0.00	29.796 
13:50	57.0	57.0	57.0	73	48.4	2	6	248	0.00	29.796 
13:55	57.2	57.2	57.2	73	48.6	2	6	248	0.00	29.796 
14:00	57.2	57.2	57.2	73	48.6	2	9	248	0.00	29.783 
14:05	57.3	57.3	57.3	73	48.7	2	7	248	0.00	29.783 
14:10	57.5	57.5	57.5	73	48.9	2	7	248	0.00	29.783 
14:15	57.5	57.5	57.5	72	48.5	2	6	248	0.00	29.779 
14:20	57.6	57.6	57.6	71	48.3	2	7	248	0.00	29.779 
14:25	57.6	57.6	57.6	72	48.6	2	6	248	0.00	29.779 
14:30	57.5	57.5	57.5	71	48.2	2	5	225	0.00	29.775 
14:35	57.6	57.6	57.6	72	48.6	2	6	248	0.00	29.775 
14:40	57.6	57.6	57.6	72	48.6	2	7	270	0.00	29.775 
14:45	57.6	57.6	57.6	72	48.6	2	5	248	0.00	29.772 
14:50	57.6	57.6	57.6	73	49.0	2	7	248	0.00	29.772 
14:55	57.6	57.6	57.6	73	49.0	1	6	270	0.00	29.772 
15:00	57.6	57.6	57.6	74	49.4	1	4	270	0.00	29.771 
15:05	57.8	57.8	57.8	72	48.8	3	7	270	0.00	29.771 
15:10	58.0	58.0	58.0	71	48.6	2	7	248	0.00	29.771 
15:15	57.8	57.8	57.8	72	48.8	1	6	248	0.00	29.779 
15:20	57.5	57.5	57.5	72	48.5	2	7	248	0.00	29.779 
15:25	57.2	57.2	57.2	73	48.6	2	7	270	0.00	29.779 
15:30	56.9	56.9	56.9	73	48.3	2	5	248	0.00	29.781 
15:35	56.9	56.9	56.9	74	48.7	2	6	248	0.00	29.781 
15:40	56.7	56.7	56.7	74	48.5	1	4	248	0.00	29.781 
15:45	56.6	56.6	56.6	75	48.8	1	3	270	0.00	29.780 
15:50	56.5	56.5	56.5	75	48.7	1	5	270	0.00	29.780 
15:55	56.5	56.5	56.5	75	48.7	1	5	270	0.00	29.780 
16:00	56.3	56.3	56.3	74	48.1	1	4	248	0.00	29.785 
16:05	56.3	56.3	56.3	75	48.5	2	6	248	0.00	29.785 
16:10	56.2	56.2	56.2	75	48.4	1	3	225	0.00	29.785 
16:15	56.0	56.0	56.0	75	48.2	1	4	248	0.00	29.784 
16:20	56.0	56.0	56.0	75	48.2	2	9	248	0.00	29.784 
16:25	56.0	56.0	56.0	74	47.8	1	5	270	0.00	29.784 
16:30	56.0	56.0	56.0	74	47.8	2	7	248	0.00	29.787 
16:35	56.2	56.2	56.2	73	47.7	1	7	225	0.00	29.787 
16:40	56.2	56.2	56.2	74	48.0	0	3	225	0.00	29.787 
16:45	56.0	56.0	56.0	75	48.2	1	4	225	0.00	29.789 
16:50	55.7	55.7	55.7	75	47.9	1	5	248	0.00	29.789 
16:55	55.4	55.4	55.4	76	48.0	0	2	248	0.00	29.789 
17:00	55.3	55.3	55.3	77	48.2	0	3	248	0.00	29.797 
17:05	55.1	55.1	55.1	77	48.0	1	4	248	0.00	29.797 
17:10	55.0	55.0	55.0	77	47.9	0	2	90	0.00	29.797 
17:15	54.7	54.7	54.7	77	47.6	0	2	90	0.00	29.789 
17:20	54.5	54.5	54.5	77	47.4	0	1	90	0.00	29.789 
17:25	54.2	54.2	54.2	78	47.5	0	1	90	0.00	29.789 
17:30	53.9	53.9	53.9	79	47.5	0	1	90	0.00	29.797 
17:35	53.6	53.6	53.6	79	47.2	0	2	90	0.00	29.797 
17:40	53.5	53.5	53.5	80	47.5	0	1	90	0.00	29.797 
17:45	53.3	53.3	53.3	80	47.3	0	2	90	0.00	29.799 
17:50	53.2	53.2	53.2	81	47.5	0	1	90	0.00	29.799 
17:55	53.1	53.1	53.1	81	47.4	0	2	90	0.00	29.799 
18:00	52.9	52.9	52.9	81	47.2	0	1	90	0.00	29.802 
18:05	52.8	52.8	52.8	82	47.5	0	1	90	0.00	29.802 
18:10	52.8	52.8	52.8	82	47.5	0	3	90	0.00	29.802 
18:15	52.6	52.6	52.6	82	47.3	1	5	248	0.00	29.805 
18:20	52.5	52.5	52.5	83	47.5	0	3	248	0.00	29.805 
18:25	52.3	52.3	52.3	83	47.3	0	2	248	0.00	29.805 
18:30	52.2	52.2	52.2	83	47.2	0	2	248	0.00	29.813 
18:35	52.0	52.0	52.0	84	47.3	0	2	270	0.00	29.813 
18:40	51.9	51.9	51.9	84	47.2	0	2	270	0.00	29.813 
18:45	51.7	51.7	51.7	84	47.0	0	3	270	0.00	29.811 
18:50	51.7	51.7	51.7	84	47.0	1	3	270	0.00	29.811 
18:55	51.9	51.9	51.9	84	47.2	1	4	248	0.00	29.811 
19:00	51.9	51.9	51.9	84	47.2	0	2	248	0.00	29.815 
19:05	52.0	52.0	52.0	84	47.3	1	4	248	0.00	29.815 
19:10	52.2	52.2	52.2	84	47.5	0	2	248	0.00	29.815 
19:15	52.2	52.2	52.2	84	47.5	0	2	248	0.00	29.819 
19:20	52.0	52.0	52.0	84	47.3	0	1	248	0.00	29.819 
19:25	52.0	52.0	52.0	84	47.3	0	2	248	0.00	29.819 
19:30	52.0	52.0	52.0	85	47.6	0	1	248	0.00	29.820 
19:35	52.0	52.0	52.0	85	47.6	0	2	248	0.00	29.820 
19:40	51.9	51.9	51.9	85	47.5	0	1	248	0.00	29.820 
19:45	51.9	51.9	51.9	85	47.5	0	1	248	0.00	29.821 
19:50	51.9	51.9	51.9	85	47.5	0	2	248	0.00	29.821 
19:55	52.0	52.0	52.0	86	47.9	0	2	248	0.00	29.821 
20:00	52.0	52.0	52.0	86	47.9	0	3	248	0.00	29.826 
20:05	52.0	52.0	52.0	86	47.9	0	2	248	0.00	29.826 
20:10	52.2	52.2	52.2	86	48.1	1	6	248	0.00	29.826 
20:15	52.3	52.3	52.3	85	47.9	0	2	248	0.00	29.830 
20:20	52.5	52.5	52.5	85	48.1	0	2	248	0.00	29.830 
20:25	52.6	52.6	52.6	84	47.9	0	3	248	0.00	29.830 
20:30	52.8	52.8	52.8	84	48.1	0	2	248	0.00	29.824 
20:35	52.8	52.8	52.8	83	47.8	0	2	248	0.00	29.824 
20:40	52.9	52.9	52.9	83	47.9	0	1	248	0.00	29.824 
20:45	52.9	52.9	52.9	82	47.6	0	2	248	0.00	29.821 
20:50	53.1	53.1	53.1	81	47.4	0	1	248	0.00	29.821 
20:55	53.1	53.1	53.1	81	47.4	0	3	248	0.00	29.821 
21:00	53.2	53.2	53.2	81	47.5	0	3	248	0.00	29.826 
21:05	53.2	53.2	53.2	80	47.2	0	2	248	0.00	29.826 
21:10	53.3	53.3	53.3	80	47.3	1	5	248	0.00	29.826 
21:15	53.5	53.5	53.5	80	47.5	0	2	248	0.00	29.828 
21:20	53.5	53.5	53.5	80	47.5	0	3	248	0.00	29.828 
21:25	53.5	53.5	53.5	80	47.5	0	3	248	0.00	29.828 
21:30	53.5	53.5	53.5	81	47.8	0	2	248	0.00	29.827 
21:35	53.5	53.5	53.5	81	47.8	0	2	248	0.00	29.827 
21:40	53.3	53.3	53.3	81	47.6	0	1	248	0.00	29.827 
21:45	53.3	53.3	53.3	81	47.6	0	2	248	0.00	29.817 
21:50	53.2	53.2	53.2	82	47.8	0	2	248	0.00	29.817 
21:55	53.2	53.2	53.2	82	47.8	0	1	248	0.00	29.817 
22:00	53.2	53.2	53.2	82	47.8	0	1	248	0.00	29.819 
22:05	53.1	53.1	53.1	83	48.1	0	1	248	0.00	29.819 
22:10	53.1	53.1	53.1	83	48.1	0	1	248	0.00	29.819 
22:15	52.9	52.9	52.9	83	47.9	0	1	248	0.00	29.819 
22:20	52.9	52.9	52.9	84	48.2	0	1	248	0.00	29.819 
22:25	52.9	52.9	52.9	84	48.2	0	1	248	0.00	29.819 
22:30	52.8	52.8	52.8	84	48.1	0	2	248	0.00	29.820 
22:35	52.8	52.8	52.8	84	48.1	0	1	248	0.00	29.820 
22:40	52.8	52.8	52.8	85	48.4	0	1	248	0.00	29.820 
22:45	52.6	52.6	52.6	85	48.2	0	1	248	0.00	29.819 
22:50	52.6	52.6	52.6	85	48.2	0	1	248	0.00	29.819 
22:55	52.6	52.6	52.6	86	48.5	0	1	248	0.00	29.819 
23:00	52.5	52.5	52.5	86	48.4	0	0	---	0.00	29.812 
23:05	52.3	52.3	52.3	86	48.2	0	2	248	0.00	29.812 
23:10	52.2	52.2	52.2	86	48.1	0	1	248	0.00	29.812 
23:15	52.0	52.0	52.0	87	48.3	0	1	248	0.00	29.813 
23:20	51.9	51.9	51.9	87	48.2	0	0	---	0.00	29.813 
23:25	51.6	51.6	51.6	87	47.9	0	0	---	0.00	29.813 
23:30	51.3	51.3	51.3	88	47.9	0	0	---	0.00	29.812 
23:35	51.1	51.1	51.1	88	47.7	0	0	---	0.00	29.812 
23:40	50.7	50.7	50.7	88	47.3	0	0	---	0.00	29.812 
23:45	50.4	50.4	50.4	88	47.0	0	0	---	0.00	29.813 
23:50	50.1	50.1	50.1	88	46.7	0	0	---	0.00	29.813 
23:55	49.6	49.6	49.6	88	46.2	0	0	---	0.00	29.813 

CoCoRaHS
IN-AL-39
A2 Web Hosting
Creative Commons License
GoDaddy
search engine by freefind advanced

loaded 2018-11-15 16:15:47 • last modified 2010-11-18 10:43:29
Privacy PolicyDisclaimer
• wx.awcolley.com is powered by PmWiki v.2002016 •
• all content (unless otherwise noted) © 2018 A W Colley